Time;durP1;ratioP1;P1;durP2;ratioP2;P2;SDS_P1;SDS_P2;PMS_P1;PMS_P2;Temp;Humidity;BMP_temperature;BMP_pressure;BME280_temperature;BME280_humidity;BME280_pressure;Samples;Min_cycle;Max_cycle;Signal;HPM_P1;HPM_P2
2022/07/14 00:01:26;;;;;;;3.88;2.47;;;25.40;99.90;;;;;;4054680;29;20721;-80
2022/07/14 00:03:30;;;;;;;4.50;2.38;;;25.40;99.90;;;;;;4056801;29;20253;-80
2022/07/14 00:05:32;;;;;;;2.90;2.28;;;25.50;99.90;;;;;;4060938;29;20240;-80
2022/07/14 00:07:35;;;;;;;3.47;2.20;;;25.40;99.90;;;;;;4065622;29;20670;-80
2022/07/14 00:09:37;;;;;;;3.25;2.20;;;25.40;99.90;;;;;;4062066;29;20216;-80
2022/07/14 00:11:40;;;;;;;3.20;2.13;;;25.40;99.90;;;;;;4060640;29;20275;-80
2022/07/14 00:13:42;;;;;;;4.72;2.55;;;25.40;99.90;;;;;;4067188;29;20268;-80
2022/07/14 00:15:44;;;;;;;3.63;2.05;;;25.40;99.90;;;;;;4065324;29;20672;-80
2022/07/14 00:17:46;;;;;;;4.35;2.42;;;25.40;99.90;;;;;;4062433;29;20225;-80
2022/07/14 00:19:50;;;;;;;2.53;2.20;;;25.40;99.90;;;;;;4056474;29;20697;-80
2022/07/14 00:21:52;;;;;;;2.90;2.08;;;25.40;99.90;;;;;;4055689;29;20628;-80
2022/07/14 00:23:55;;;;;;;4.18;2.55;;;25.40;99.90;;;;;;4063752;29;20224;-80
2022/07/14 00:25:57;;;;;;;4.40;2.20;;;25.40;99.90;;;;;;4063226;29;20288;-80
2022/07/14 00:28:00;;;;;;;2.90;2.10;;;25.40;99.90;;;;;;4063863;29;20230;-80
2022/07/14 00:30:02;;;;;;;3.40;2.25;;;25.40;99.90;;;;;;4065652;29;20618;-80
2022/07/14 00:32:07;;;;;;;2.72;2.20;;;25.40;99.90;;;;;;4059478;29;20226;-80
2022/07/14 00:34:10;;;;;;;3.60;2.47;;;25.40;99.90;;;;;;4061890;29;20229;-80
2022/07/14 00:36:13;;;;;;;3.70;2.47;;;25.40;99.90;;;;;;4062552;29;20241;-80
2022/07/14 00:38:16;;;;;;;3.35;2.60;;;25.30;99.90;;;;;;4062612;29;20642;-80
2022/07/14 00:40:18;;;;;;;3.28;2.15;;;25.40;99.90;;;;;;4057644;29;20220;-81
2022/07/14 00:42:29;;;;;;;4.53;2.35;;;25.30;99.90;;;;;;4059277;29;20228;-80
2022/07/14 00:44:31;;;;;;;4.13;2.28;;;25.30;99.90;;;;;;4060063;29;20728;-80
2022/07/14 00:46:33;;;;;;;2.33;1.90;;;25.30;99.90;;;;;;4060707;29;20217;-80
2022/07/14 00:48:36;;;;;;;5.00;2.47;;;25.30;99.90;;;;;;4061891;29;20280;-80
2022/07/14 00:50:41;;;;;;;3.35;2.40;;;25.30;99.90;;;;;;4056485;29;20664;-80
2022/07/14 00:52:46;;;;;;;2.63;2.05;;;25.30;99.90;;;;;;4056148;29;20285;-81
2022/07/14 00:54:49;;;;;;;3.13;2.20;;;25.30;99.90;;;;;;4062812;29;20633;-80
2022/07/14 00:56:51;;;;;;;2.65;2.20;;;25.30;99.90;;;;;;4062260;29;20224;-80
2022/07/14 00:58:54;;;;;;;3.75;2.10;;;25.30;99.90;;;;;;4058094;29;20245;-80
2022/07/14 01:00:57;;;;;;;4.05;2.25;;;25.30;99.90;;;;;;4058911;29;20216;-80
2022/07/14 01:02:59;;;;;;;3.00;2.30;;;25.30;99.90;;;;;;4064831;29;20220;-80
2022/07/14 01:05:01;;;;;;;3.10;2.00;;;25.30;99.90;;;;;;4064219;29;20308;-80
2022/07/14 01:07:04;;;;;;;4.72;2.17;;;25.30;99.90;;;;;;4055756;29;20306;-80
2022/07/14 01:09:07;;;;;;;2.80;2.10;;;25.30;99.90;;;;;;4059096;29;20213;-80
2022/07/14 01:11:10;;;;;;;3.60;2.20;;;25.30;99.90;;;;;;4062657;29;20280;-80
2022/07/14 01:13:12;;;;;;;2.63;2.20;;;25.30;99.90;;;;;;4061589;29;20279;-80
2022/07/14 01:15:15;;;;;;;6.00;2.40;;;25.20;99.90;;;;;;4052538;29;20288;-80
2022/07/14 01:17:18;;;;;;;2.85;1.90;;;25.30;99.90;;;;;;4075183;29;20224;-80
2022/07/14 01:19:20;;;;;;;4.45;1.92;;;25.30;99.90;;;;;;4071180;29;20693;-80
2022/07/14 01:21:25;;;;;;;2.97;2.00;;;25.30;99.90;;;;;;4056998;29;20225;-80
2022/07/14 01:23:28;;;;;;;4.90;2.30;;;25.30;99.90;;;;;;4060701;29;20217;-80
2022/07/14 01:25:31;;;;;;;3.60;2.30;;;25.30;99.90;;;;;;4061883;29;20249;-80
2022/07/14 01:27:33;;;;;;;3.92;2.25;;;25.30;99.90;;;;;;4065114;29;20252;-80
2022/07/14 01:29:35;;;;;;;3.15;2.10;;;25.30;99.90;;;;;;4071819;29;20623;-80
2022/07/14 01:31:38;;;;;;;3.95;2.30;;;25.30;99.90;;;;;;4063750;29;20217;-80
2022/07/14 01:33:40;;;;;;;4.00;2.38;;;25.30;99.90;;;;;;4058413;29;20221;-80
2022/07/14 01:35:43;;;;;;;3.97;2.50;;;25.30;99.90;;;;;;4055503;29;20225;-80
2022/07/14 01:37:48;;;;;;;3.10;2.20;;;25.20;99.90;;;;;;4063260;29;20247;-80
2022/07/14 01:39:50;;;;;;;5.10;2.17;;;25.20;99.90;;;;;;4067131;29;20277;-80
2022/07/14 01:41:52;;;;;;;3.60;2.10;;;25.20;99.90;;;;;;4065212;29;20224;-80
2022/07/14 01:43:55;;;;;;;4.45;2.15;;;25.20;99.90;;;;;;4060307;29;20220;-80
2022/07/14 01:45:57;;;;;;;3.05;2.38;;;25.20;99.90;;;;;;4061516;29;20776;-80
2022/07/14 01:47:59;;;;;;;3.47;2.10;;;25.20;99.90;;;;;;4064886;29;20638;-80
2022/07/14 01:50:02;;;;;;;4.25;2.03;;;25.20;99.90;;;;;;4062091;29;20748;-80
2022/07/14 01:52:05;;;;;;;3.20;2.05;;;25.20;99.90;;;;;;4068744;29;20217;-80
2022/07/14 01:54:09;;;;;;;4.35;2.45;;;25.20;99.90;;;;;;4061417;29;20209;-80
2022/07/14 01:56:12;;;;;;;4.35;2.58;;;25.20;99.90;;;;;;4071309;29;20271;-80
2022/07/14 01:58:14;;;;;;;3.85;1.75;;;25.20;99.90;;;;;;4073940;29;20223;-80
2022/07/14 02:00:17;;;;;;;2.67;2.00;;;25.20;99.90;;;;;;4069337;29;20284;-80
2022/07/14 02:02:19;;;;;;;3.25;2.40;;;25.20;99.90;;;;;;4062301;29;20247;-80
2022/07/14 02:04:22;;;;;;;3.42;2.15;;;25.20;99.90;;;;;;4063216;29;20634;-80
2022/07/14 02:06:24;;;;;;;5.10;2.35;;;25.20;99.90;;;;;;4064813;29;20238;-80
2022/07/14 02:08:27;;;;;;;3.47;1.90;;;25.20;99.90;;;;;;4060420;29;20233;-80
2022/07/14 02:12:50;;;;;;;6.05;2.28;;;25.20;99.90;;;;;;4066489;29;20213;-80
2022/07/14 02:14:53;;;;;;;4.15;2.22;;;25.10;99.90;;;;;;4067751;29;20224;-80
2022/07/14 02:16:55;;;;;;;4.30;2.22;;;25.10;99.90;;;;;;4060029;29;20217;-80
2022/07/14 02:18:57;;;;;;;5.00;2.45;;;25.10;99.90;;;;;;4064611;29;20221;-80
2022/07/14 02:20:59;;;;;;;3.63;2.08;;;25.10;99.90;;;;;;4063472;29;20623;-80
2022/07/14 02:23:01;;;;;;;4.75;2.40;;;25.10;99.90;;;;;;4064296;29;20561;-80
2022/07/14 02:25:04;;;;;;;4.78;2.00;;;25.10;99.90;;;;;;4065079;29;20232;-80
2022/07/14 02:27:08;;;;;;;5.60;2.35;;;25.10;99.90;;;;;;4061443;29;20662;-80
2022/07/14 02:29:10;;;;;;;4.03;2.25;;;25.10;99.90;;;;;;4060889;29;20220;-80
2022/07/14 02:31:13;;;;;;;4.93;2.30;;;25.10;99.90;;;;;;4062378;29;20228;-80
2022/07/14 02:33:15;;;;;;;3.72;2.35;;;25.10;99.90;;;;;;4063891;29;20636;-80
2022/07/14 02:35:18;;;;;;;3.45;2.10;;;25.10;99.90;;;;;;4065381;29;20247;-80
2022/07/14 02:37:20;;;;;;;6.43;2.22;;;25.10;99.90;;;;;;4054978;29;20225;-80
2022/07/14 02:39:22;;;;;;;3.85;2.10;;;25.10;99.90;;;;;;4073056;29;20292;-80
2022/07/14 02:41:25;;;;;;;4.45;2.50;;;25.10;99.90;;;;;;4055686;29;20729;-80
2022/07/14 02:43:28;;;;;;;4.35;2.13;;;25.10;99.90;;;;;;4071513;29;20228;-80
2022/07/14 02:45:31;;;;;;;3.38;2.05;;;25.10;99.90;;;;;;4068960;29;20217;-80
2022/07/14 02:47:33;;;;;;;2.58;1.75;;;25.10;99.90;;;;;;4067743;29;20296;-80
2022/07/14 02:49:35;;;;;;;4.80;2.38;;;25.10;99.90;;;;;;4065744;29;20314;-80
2022/07/14 02:51:38;;;;;;;3.92;2.10;;;25.10;99.90;;;;;;4062284;29;20288;-80
2022/07/14 02:53:40;;;;;;;5.18;2.38;;;25.10;99.90;;;;;;4066311;29;20265;-80
2022/07/14 02:55:43;;;;;;;3.67;2.05;;;25.10;99.90;;;;;;4062096;29;20653;-80
2022/07/14 02:57:45;;;;;;;3.25;2.00;;;25.10;99.90;;;;;;4063564;29;20217;-80
2022/07/14 02:59:50;;;;;;;3.75;2.10;;;25.10;99.90;;;;;;4071550;29;20697;-80
2022/07/14 03:01:52;;;;;;;2.90;2.17;;;25.10;99.90;;;;;;4062382;29;20221;-79
2022/07/14 03:03:54;;;;;;;4.15;2.45;;;25.10;99.90;;;;;;4064954;29;20661;-80
2022/07/14 03:05:57;;;;;;;3.25;2.53;;;25.10;99.90;;;;;;4060432;29;20284;-80
2022/07/14 03:07:59;;;;;;;3.38;2.10;;;25.10;99.90;;;;;;4064052;29;20276;-80
2022/07/14 03:10:02;;;;;;;2.85;2.10;;;25.10;99.90;;;;;;4059799;29;20217;-80
2022/07/14 03:12:04;;;;;;;4.55;2.22;;;25.10;99.90;;;;;;4062176;29;20297;-80
2022/07/14 03:14:07;;;;;;;3.88;2.17;;;25.10;99.90;;;;;;4060868;29;20224;-80
2022/07/14 03:16:11;;;;;;;2.88;2.15;;;25.10;99.90;;;;;;4058546;29;20217;-80
2022/07/14 03:18:13;;;;;;;3.90;2.33;;;25.10;99.90;;;;;;4056517;29;20221;-80
2022/07/14 03:20:16;;;;;;;4.10;2.25;;;25.00;99.90;;;;;;4059434;29;20244;-80
2022/07/14 03:22:18;;;;;;;5.03;2.22;;;25.10;99.90;;;;;;4058962;29;20224;-80
2022/07/14 03:24:21;;;;;;;4.15;2.20;;;25.00;99.90;;;;;;4057231;29;20221;-80
2022/07/14 03:26:23;;;;;;;3.28;2.20;;;25.10;99.90;;;;;;4065476;29;20268;-80
2022/07/14 03:28:26;;;;;;;3.60;2.33;;;25.00;99.90;;;;;;4063691;29;20273;-80
2022/07/14 03:30:28;;;;;;;4.60;2.10;;;25.00;99.90;;;;;;4059288;29;20221;-80
2022/07/14 03:32:32;;;;;;;4.03;2.22;;;25.00;99.90;;;;;;4056105;29;20268;-80
2022/07/14 03:34:34;;;;;;;4.55;2.28;;;25.00;99.90;;;;;;4064132;29;20220;-80
2022/07/14 03:36:37;;;;;;;3.65;2.03;;;25.00;99.90;;;;;;4067416;29;20216;-80
2022/07/14 03:38:39;;;;;;;3.60;2.38;;;25.00;99.90;;;;;;4064394;29;20212;-80
2022/07/14 03:40:41;;;;;;;4.95;2.25;;;25.00;99.90;;;;;;4056397;29;20267;-80
2022/07/14 03:42:44;;;;;;;3.80;2.08;;;25.00;99.90;;;;;;4058767;29;20221;-80
2022/07/14 03:44:46;;;;;;;3.20;2.17;;;25.00;99.90;;;;;;4067019;29;20220;-80
2022/07/14 03:46:48;;;;;;;4.07;2.30;;;25.00;99.90;;;;;;4065776;29;20225;-80
2022/07/14 03:48:52;;;;;;;2.67;2.10;;;25.00;99.90;;;;;;4058390;29;20269;-79
2022/07/14 03:50:54;;;;;;;4.18;2.30;;;25.00;99.90;;;;;;4059135;29;20693;-80
2022/07/14 03:52:57;;;;;;;4.05;2.20;;;25.00;99.90;;;;;;4063221;29;20224;-80
2022/07/14 03:54:59;;;;;;;4.55;1.90;;;24.90;99.90;;;;;;4063136;29;20253;-80
2022/07/14 03:57:01;;;;;;;3.45;2.10;;;25.00;99.90;;;;;;4060757;29;20225;-80
2022/07/14 03:59:04;;;;;;;3.65;2.10;;;24.90;99.90;;;;;;4062034;29;20221;-80
2022/07/14 04:01:06;;;;;;;3.85;2.47;;;25.00;99.90;;;;;;4057060;29;20237;-80
2022/07/14 04:03:09;;;;;;;4.88;2.30;;;24.90;99.90;;;;;;4056406;29;20221;-81
2022/07/14 04:05:12;;;;;;;4.20;2.05;;;24.90;99.90;;;;;;4061041;29;20225;-80
2022/07/14 04:07:15;;;;;;;2.75;2.03;;;24.90;99.90;;;;;;4062975;29;20665;-80
2022/07/14 04:09:17;;;;;;;3.75;1.98;;;24.90;99.90;;;;;;4066426;29;20232;-80
2022/07/14 04:11:19;;;;;;;4.10;2.13;;;24.90;99.90;;;;;;4063476;29;20222;-80
2022/07/14 04:13:21;;;;;;;3.90;2.15;;;24.90;99.90;;;;;;4054053;29;20288;-80
2022/07/14 04:15:24;;;;;;;2.47;1.92;;;24.90;99.90;;;;;;4056050;29;20682;-80
2022/07/14 04:17:26;;;;;;;3.97;2.33;;;24.90;99.90;;;;;;4056708;29;20644;-80
2022/07/14 04:19:29;;;;;;;2.55;1.83;;;24.90;99.90;;;;;;4057391;29;20623;-80
2022/07/14 04:21:32;;;;;;;3.50;2.22;;;25.00;99.90;;;;;;4065021;29;20240;-80
2022/07/14 04:23:35;;;;;;;4.10;2.40;;;24.90;99.90;;;;;;4059362;29;20678;-80
2022/07/14 04:25:37;;;;;;;2.95;2.08;;;24.90;99.90;;;;;;4061600;29;20221;-80
2022/07/14 04:27:39;;;;;;;4.30;2.17;;;24.90;99.90;;;;;;4055618;29;20268;-80
2022/07/14 04:29:41;;;;;;;2.70;1.90;;;24.90;99.90;;;;;;4065790;29;20212;-80
2022/07/14 04:31:44;;;;;;;4.13;2.28;;;24.90;99.90;;;;;;4065393;29;20657;-80
2022/07/14 04:33:47;;;;;;;3.30;2.20;;;24.90;99.90;;;;;;4064811;29;20287;-80
2022/07/14 04:35:49;;;;;;;3.70;2.10;;;24.90;99.90;;;;;;4061593;29;20216;-80
2022/07/14 04:37:54;;;;;;;3.20;1.92;;;24.90;99.90;;;;;;4057777;29;20267;-80
2022/07/14 04:39:57;;;;;;;3.38;2.05;;;24.90;99.90;;;;;;4064316;29;20225;-80
2022/07/14 04:42:00;;;;;;;3.47;2.13;;;24.90;99.90;;;;;;4060204;29;20232;-80
2022/07/14 04:44:05;;;;;;;3.78;2.20;;;24.90;99.90;;;;;;4059360;29;20277;-80
2022/07/14 04:46:09;;;;;;;4.38;1.98;;;24.90;99.90;;;;;;4050823;29;20272;-80
2022/07/14 04:48:11;;;;;;;4.97;2.15;;;24.90;99.90;;;;;;4062016;29;20256;-80
2022/07/14 04:52:33;;;;;;;6.00;2.53;;;24.90;99.90;;;;;;4061919;29;20204;-80
2022/07/14 04:54:36;;;;;;;4.72;2.28;;;24.90;99.90;;;;;;4052386;29;20277;-80
2022/07/14 04:56:39;;;;;;;4.85;2.13;;;24.90;99.90;;;;;;4065930;29;20873;-80
2022/07/14 04:58:42;;;;;;;4.80;2.53;;;24.90;99.90;;;;;;4060562;29;20220;-80
2022/07/14 05:00:44;;;;;;;4.25;2.10;;;24.90;99.90;;;;;;4058384;29;20701;-80
2022/07/14 05:02:46;;;;;;;3.83;1.95;;;24.90;99.90;;;;;;4056969;29;20249;-80
2022/07/14 05:04:50;;;;;;;4.30;2.00;;;24.90;99.90;;;;;;4053782;29;20273;-81
2022/07/14 05:06:52;;;;;;;3.50;2.10;;;24.90;99.90;;;;;;4058769;29;20333;-80
2022/07/14 05:08:54;;;;;;;5.25;2.42;;;24.90;99.90;;;;;;4058806;29;20220;-80
2022/07/14 05:10:58;;;;;;;2.88;1.80;;;24.90;99.90;;;;;;4061166;29;20219;-80
2022/07/14 05:13:00;;;;;;;5.15;2.10;;;24.90;99.90;;;;;;4062224;29;20228;-80
2022/07/14 05:15:02;;;;;;;2.65;2.08;;;24.90;99.90;;;;;;4058551;29;20228;-80
2022/07/14 05:17:05;;;;;;;4.85;2.22;;;24.90;99.90;;;;;;4064456;29;20264;-80
2022/07/14 05:19:08;;;;;;;4.95;2.40;;;24.90;99.90;;;;;;4063391;29;20689;-80
2022/07/14 05:21:10;;;;;;;3.67;2.15;;;24.90;99.90;;;;;;4065010;29;20296;-80
2022/07/14 05:23:13;;;;;;;5.75;2.45;;;24.90;99.90;;;;;;4058172;29;20232;-80
2022/07/14 05:25:15;;;;;;;4.22;2.35;;;24.90;99.90;;;;;;4056533;29;20233;-80
2022/07/14 05:27:19;;;;;;;4.13;2.05;;;24.90;99.90;;;;;;4064743;29;20228;-80
2022/07/14 05:29:21;;;;;;;4.43;1.98;;;24.90;99.90;;;;;;4055214;29;20648;-79
2022/07/14 05:31:24;;;;;;;2.80;1.60;;;24.90;99.90;;;;;;4062477;29;20268;-80
2022/07/14 05:33:26;;;;;;;4.47;2.20;;;24.90;99.90;;;;;;4053032;29;20224;-80
2022/07/14 05:35:28;;;;;;;3.83;2.08;;;24.90;99.90;;;;;;4063026;29;20291;-80
2022/07/14 05:37:31;;;;;;;3.70;2.20;;;24.80;99.90;;;;;;4053354;29;20229;-80
2022/07/14 05:39:33;;;;;;;5.10;2.33;;;24.90;99.90;;;;;;4056078;29;20276;-80
2022/07/14 05:41:35;;;;;;;4.20;2.30;;;24.90;99.90;;;;;;4057150;29;20249;-80
2022/07/14 05:43:39;;;;;;;3.28;2.03;;;24.80;99.90;;;;;;4058960;29;20292;-80
2022/07/14 05:45:41;;;;;;;3.58;2.05;;;24.90;99.90;;;;;;4055661;29;20213;-80
2022/07/14 05:47:44;;;;;;;5.18;2.30;;;24.80;99.90;;;;;;4055274;29;20225;-80
2022/07/14 05:49:46;;;;;;;3.60;2.40;;;24.90;99.90;;;;;;4054904;29;20240;-80
2022/07/14 05:51:48;;;;;;;3.72;2.00;;;24.80;99.90;;;;;;4055505;29;20213;-80
2022/07/14 05:53:51;;;;;;;3.75;1.95;;;24.80;99.90;;;;;;4058542;29;20744;-80
2022/07/14 05:55:53;;;;;;;3.22;1.98;;;24.80;99.90;;;;;;4057663;29;20263;-80
2022/07/14 05:57:55;;;;;;;3.45;2.17;;;24.80;99.90;;;;;;4060617;29;20303;-80
2022/07/14 05:59:59;;;;;;;4.35;2.08;;;24.80;99.90;;;;;;4059513;29;20271;-80
2022/07/14 06:02:01;;;;;;;5.05;2.00;;;24.80;99.90;;;;;;4056334;29;20275;-80
2022/07/14 06:04:04;;;;;;;4.32;2.10;;;24.80;99.90;;;;;;4058997;29;20568;-80
2022/07/14 06:06:08;;;;;;;3.88;2.20;;;24.80;99.90;;;;;;4056220;29;20225;-80
2022/07/14 06:08:11;;;;;;;2.97;1.92;;;24.80;99.90;;;;;;4060894;29;20934;-80
2022/07/14 06:10:13;;;;;;;4.90;2.20;;;24.80;99.90;;;;;;4055414;29;20224;-80
2022/07/14 06:12:16;;;;;;;3.17;1.85;;;24.80;99.90;;;;;;4059675;29;20225;-79
2022/07/14 06:14:19;;;;;;;3.50;2.03;;;24.90;99.90;;;;;;4054106;29;20352;-79
2022/07/14 06:16:22;;;;;;;3.47;2.22;;;24.80;99.90;;;;;;4056568;29;20221;-80
2022/07/14 06:18:25;;;;;;;4.28;1.95;;;24.90;99.90;;;;;;4057855;29;20271;-80
2022/07/14 06:20:27;;;;;;;4.60;2.30;;;24.90;99.90;;;;;;4058296;29;20236;-80
2022/07/14 06:22:29;;;;;;;3.63;2.03;;;24.80;99.90;;;;;;4063369;29;20342;-81
2022/07/14 06:24:32;;;;;;;3.25;2.00;;;24.80;99.90;;;;;;4061089;29;20225;-80
2022/07/14 06:26:34;;;;;;;3.92;2.15;;;24.80;99.90;;;;;;4057219;29;20284;-80
2022/07/14 06:28:37;;;;;;;4.75;2.10;;;24.80;99.90;;;;;;4056332;29;20265;-80
2022/07/14 06:30:39;;;;;;;5.07;2.53;;;24.90;99.90;;;;;;4064364;29;20645;-80
2022/07/14 06:32:43;;;;;;;4.78;2.10;;;24.90;99.90;;;;;;4063795;29;20257;-80
2022/07/14 06:34:45;;;;;;;5.47;2.50;;;24.80;99.90;;;;;;4062921;29;20236;-80
2022/07/14 06:36:48;;;;;;;3.20;1.80;;;24.80;99.90;;;;;;4060639;29;20280;-80
2022/07/14 06:38:50;;;;;;;4.18;1.92;;;24.80;99.90;;;;;;4057813;29;20277;-80
2022/07/14 06:40:52;;;;;;;5.35;2.17;;;24.90;99.90;;;;;;4067831;29;20272;-80
2022/07/14 06:42:54;;;;;;;3.70;2.40;;;24.90;99.90;;;;;;4064974;29;20233;-80
2022/07/14 06:44:57;;;;;;;4.47;2.40;;;24.80;99.90;;;;;;4060799;29;20672;-80
2022/07/14 06:46:59;;;;;;;12.43;5.07;;;24.80;99.90;;;;;;4056358;29;20277;-78
2022/07/14 06:49:03;;;;;;;15.77;5.28;;;24.10;99.90;;;;;;4062345;29;20285;-85
2022/07/14 06:51:05;;;;;;;13.90;5.43;;;23.30;99.90;;;;;;4062855;29;20275;-84
2022/07/14 06:53:09;;;;;;;15.75;5.72;;;23.10;99.90;;;;;;4056271;29;20222;-81
2022/07/14 06:55:11;;;;;;;13.48;5.65;;;22.80;99.90;;;;;;4059986;29;20221;-83
2022/07/14 06:57:13;;;;;;;13.65;5.63;;;22.50;99.90;;;;;;4057923;29;20225;-83
2022/07/14 06:59:16;;;;;;;14.32;5.93;;;22.20;99.90;;;;;;4064532;29;20653;-83
2022/07/14 07:01:18;;;;;;;16.60;6.18;;;22.10;99.90;;;;;;4056412;29;20224;-82
2022/07/14 07:03:20;;;;;;;14.55;5.43;;;22.10;99.90;;;;;;4060000;29;20224;-83
2022/07/14 07:07:47;;;;;;;13.77;5.15;;;21.90;99.90;;;;;;4056423;29;20213;-83
2022/07/14 07:09:49;;;;;;;12.85;4.78;;;21.90;99.90;;;;;;4059768;29;20209;-82
2022/07/14 07:11:51;;;;;;;13.95;4.50;;;21.90;99.90;;;;;;4065943;29;20217;-83
2022/07/14 07:13:54;;;;;;;10.73;4.53;;;22.00;99.90;;;;;;4056880;29;20225;-82
2022/07/14 07:15:56;;;;;;;13.70;4.15;;;22.10;99.90;;;;;;4054740;29;20249;-85
2022/07/14 07:17:59;;;;;;;9.75;4.00;;;22.10;99.90;;;;;;4065436;29;20605;-83
2022/07/14 07:20:02;;;;;;;13.02;4.32;;;22.00;99.90;;;;;;4064385;29;20236;-86
2022/07/14 07:22:05;;;;;;;11.10;3.95;;;21.70;99.90;;;;;;4058964;29;20236;-85
2022/07/14 07:24:09;;;;;;;11.48;4.47;;;21.70;99.90;;;;;;4060247;29;20209;-84
2022/07/14 07:26:11;;;;;;;10.88;4.40;;;21.60;99.90;;;;;;4061130;29;20221;-87
2022/07/14 07:28:14;;;;;;;11.63;3.63;;;21.70;99.90;;;;;;4056392;29;20629;-83
2022/07/14 07:30:16;;;;;;;9.63;4.13;;;21.60;99.90;;;;;;4062061;29;20245;-81
2022/07/14 07:32:19;;;;;;;9.35;4.32;;;21.60;99.90;;;;;;4056654;29;20264;-83
2022/07/14 07:34:21;;;;;;;16.65;5.05;;;21.80;99.90;;;;;;4059884;29;20236;-81
2022/07/14 07:36:24;;;;;;;11.95;4.65;;;21.70;99.90;;;;;;4057615;29;20217;-82
2022/07/14 07:38:28;;;;;;;9.15;4.25;;;21.60;99.90;;;;;;4058439;29;20260;-81
2022/07/14 07:40:30;;;;;;;9.85;4.40;;;21.50;99.90;;;;;;4061030;29;20289;-83
2022/07/14 07:42:35;;;;;;;12.63;4.38;;;21.60;99.90;;;;;;4055500;29;20237;-85
2022/07/14 07:44:37;;;;;;;13.23;4.65;;;21.70;99.90;;;;;;4062422;29;20211;-83
2022/07/14 07:46:40;;;;;;;8.68;3.95;;;21.60;99.90;;;;;;4057598;29;20201;-83
2022/07/14 07:48:42;;;;;;;9.82;3.78;;;21.70;99.90;;;;;;4062756;29;20259;-82
2022/07/14 07:50:46;;;;;;;10.32;4.32;;;21.70;99.90;;;;;;4059510;29;20288;-82
2022/07/14 07:52:48;;;;;;;12.18;3.97;;;21.70;99.90;;;;;;4057061;29;20212;-85
2022/07/14 07:54:52;;;;;;;13.43;4.70;;;21.80;99.90;;;;;;4059668;29;20267;-87
2022/07/14 07:56:55;;;;;;;12.95;3.83;;;21.70;99.90;;;;;;4057918;29;20228;-84
2022/07/14 07:59:06;;;;;;;10.43;3.90;;;21.90;99.90;;;;;;4057919;29;20275;-89
2022/07/14 08:10:52;;;;;;;12.98;3.75;;;21.40;99.90;;;;;;3972857;29;20220;-86
2022/07/14 08:15:58;;;;;;;12.63;3.88;;;21.80;99.90;;;;;;3921348;29;20217;-84
2022/07/14 08:18:01;;;;;;;13.32;3.90;;;21.90;99.90;;;;;;3962596;29;20839;-77
2022/07/14 08:20:08;;;;;;;11.05;3.60;;;21.90;99.90;;;;;;3972975;29;20213;-82
2022/07/14 08:22:10;;;;;;;7.18;3.20;;;22.00;99.90;;;;;;3971506;29;20282;-83
2022/07/14 08:24:13;;;;;;;10.02;3.25;;;21.90;99.90;;;;;;3971757;29;20678;-84
2022/07/14 08:26:17;;;;;;;9.52;3.10;;;22.00;99.90;;;;;;3971822;29;20316;-85
2022/07/14 08:28:27;;;;;;;13.02;3.78;;;22.10;99.90;;;;;;3971921;29;20285;-84
2022/07/14 08:30:29;;;;;;;11.30;3.17;;;22.00;99.90;;;;;;3967671;29;20273;-82
2022/07/14 08:32:38;;;;;;;8.27;3.28;;;21.80;99.90;;;;;;3977279;29;20217;-83
2022/07/14 08:34:40;;;;;;;10.40;3.53;;;21.80;99.90;;;;;;3999772;29;20291;-83
2022/07/14 08:39:30;;;;;;;9.18;3.38;;;21.90;99.90;;;;;;3952989;30;20736;-84
2022/07/14 08:44:20;;;;;;;10.20;3.38;;;21.80;99.90;;;;;;3930384;30;20218;-86
2022/07/14 08:46:24;;;;;;;10.85;2.95;;;21.90;99.90;;;;;;4018163;29;20217;-81
2022/07/14 08:49:09;;;;;;;;;;;;;;;;;;;;;
2022/07/14 08:54:10;;;;;;;11.10;3.03;;;22.00;99.90;;;;;;4036382;29;20629;-78
2022/07/14 08:56:17;;;;;;;14.30;2.60;;;22.00;99.90;;;;;;4056786;29;20216;-82
2022/07/14 08:58:19;;;;;;;7.85;2.42;;;22.10;99.90;;;;;;4057493;29;20220;-74
2022/07/14 09:00:23;;;;;;;8.95;3.05;;;22.40;99.90;;;;;;4058093;29;20309;-84
2022/07/14 09:02:25;;;;;;;7.95;2.70;;;22.60;99.90;;;;;;4059162;29;20217;-79
2022/07/14 09:04:28;;;;;;;11.23;3.08;;;22.60;99.90;;;;;;4054925;29;20224;-76
2022/07/14 09:06:47;;;;;;;8.45;2.83;;;22.60;99.90;;;;;;4052631;29;20340;-86
2022/07/14 09:09:19;;;;;;;10.57;3.28;;;22.60;99.90;;;;;;4064649;29;20283;-88
2022/07/14 09:11:23;;;;;;;8.20;2.85;;;22.50;99.90;;;;;;4061662;29;20244;-84
2022/07/14 09:13:26;;;;;;;8.60;2.97;;;22.50;99.90;;;;;;4057584;29;20224;-86
2022/07/14 09:18:04;;;;;;;12.80;3.35;;;22.40;99.90;;;;;;4019003;29;20276;-83
2022/07/14 09:23:29;;;;;;;6.47;2.15;;;22.40;99.90;;;;;;4060316;29;20216;-88
2022/07/14 09:25:34;;;;;;;12.82;2.75;;;22.30;99.90;;;;;;4056736;29;20212;-86
2022/07/14 09:27:41;;;;;;;10.02;2.70;;;22.50;99.90;;;;;;4060270;29;20276;-88
2022/07/14 09:29:43;;;;;;;10.52;3.05;;;22.50;99.90;;;;;;4062880;29;20224;-89
2022/07/14 09:31:48;;;;;;;8.10;2.65;;;22.60;99.90;;;;;;4060909;29;20213;-87
2022/07/14 09:33:52;;;;;;;10.90;3.00;;;22.50;99.90;;;;;;4053156;29;20772;-84
2022/07/14 09:35:57;;;;;;;10.20;2.70;;;22.60;99.90;;;;;;4055626;29;20212;-90
2022/07/14 09:38:00;;;;;;;9.57;3.10;;;22.60;99.90;;;;;;4061147;29;20224;-88
2022/07/14 09:40:02;;;;;;;12.52;2.90;;;22.60;99.90;;;;;;4051199;29;20264;-83
2022/07/14 09:42:05;;;;;;;11.18;3.20;;;22.70;99.90;;;;;;4058090;29;20220;-80
2022/07/14 09:44:09;;;;;;;9.70;2.17;;;22.70;99.90;;;;;;4047084;29;20625;-84
2022/07/14 09:46:12;;;;;;;7.18;2.67;;;22.80;99.90;;;;;;4061789;29;20225;-85
2022/07/14 09:48:24;;;;;;;10.70;3.22;;;22.80;99.90;;;;;;4057741;29;20280;-91
2022/07/14 09:50:39;;;;;;;11.27;2.50;;;22.80;99.90;;;;;;4058509;29;20858;-83
2022/07/14 09:52:41;;;;;;;6.85;2.45;;;22.90;99.90;;;;;;4060457;29;20264;-84
2022/07/14 09:54:47;;;;;;;10.10;2.92;;;23.00;99.90;;;;;;4059333;29;20212;-81
2022/07/14 09:56:50;;;;;;;10.10;2.67;;;23.00;99.90;;;;;;4054308;29;20217;-85
2022/07/14 09:58:56;;;;;;;9.95;2.80;;;23.10;99.90;;;;;;4060068;29;20316;-85
2022/07/14 10:01:01;;;;;;;10.23;2.78;;;23.10;99.90;;;;;;4053184;29;20213;-86
2022/07/14 10:03:05;;;;;;;11.70;3.10;;;22.90;99.90;;;;;;4067580;29;20216;-84
2022/07/14 10:05:10;;;;;;;10.40;2.80;;;22.80;99.90;;;;;;4065210;29;20260;-84
2022/07/14 10:07:13;;;;;;;11.32;2.65;;;22.90;99.90;;;;;;4063702;29;20914;-86
2022/07/14 10:09:20;;;;;;;12.70;3.00;;;23.00;99.90;;;;;;4053746;29;20216;-82
2022/07/14 10:11:23;;;;;;;10.43;2.50;;;23.20;99.90;;;;;;4060138;29;20217;-82
2022/07/14 10:13:26;;;;;;;7.35;2.50;;;23.30;99.90;;;;;;4065212;29;20216;-84
2022/07/14 10:15:29;;;;;;;10.07;2.88;;;23.30;99.90;;;;;;4059339;29;20273;-81
2022/07/14 10:17:32;;;;;;;6.05;2.03;;;23.30;99.90;;;;;;4062797;29;20300;-84
2022/07/14 10:19:37;;;;;;;7.75;2.10;;;23.20;99.90;;;;;;4059651;29;20217;-82
2022/07/14 10:21:45;;;;;;;7.53;2.30;;;23.10;99.90;;;;;;4060511;29;20260;-90
2022/07/14 10:23:48;;;;;;;10.23;2.88;;;23.10;99.90;;;;;;4061549;29;20993;-80
2022/07/14 10:25:53;;;;;;;9.70;2.60;;;23.20;99.90;;;;;;4057050;29;20749;-79
2022/07/14 10:27:56;;;;;;;8.45;2.17;;;23.20;99.90;;;;;;4061295;29;20274;-82
2022/07/14 10:29:59;;;;;;;9.40;2.40;;;23.30;99.90;;;;;;4065307;29;20220;-81
2022/07/14 10:32:26;;;;;;;12.25;2.60;;;23.40;99.90;;;;;;4062489;29;20287;-87
2022/07/14 10:34:38;;;;;;;9.73;2.97;;;23.60;99.90;;;;;;4061767;29;20293;-86
2022/07/14 10:36:48;;;;;;;9.18;2.70;;;23.50;99.90;;;;;;4064244;29;20220;-84
2022/07/14 10:39:09;;;;;;;7.32;2.40;;;23.40;99.90;;;;;;4061803;29;20253;-85
2022/07/14 10:41:37;;;;;;;9.90;3.10;;;23.30;99.90;;;;;;4063644;29;20220;-89
2022/07/14 10:43:51;;;;;;;9.90;2.40;;;23.20;99.90;;;;;;4061460;29;20264;-89
2022/07/14 10:45:56;;;;;;;5.78;2.42;;;23.40;99.90;;;;;;4063571;29;20209;-82
2022/07/14 10:47:58;;;;;;;6.97;2.15;;;23.60;99.90;;;;;;4064857;29;20225;-87
2022/07/14 10:50:08;;;;;;;9.55;2.47;;;23.70;99.90;;;;;;4062844;29;20284;-86
2022/07/14 10:52:25;;;;;;;11.82;2.00;;;23.60;99.90;;;;;;4059913;29;20377;-81
2022/07/14 10:54:30;;;;;;;6.82;2.10;;;23.70;99.90;;;;;;4064614;29;20256;-82
2022/07/14 10:56:32;;;;;;;7.95;2.38;;;23.80;99.90;;;;;;4063498;29;20281;-82
2022/07/14 10:58:35;;;;;;;6.53;2.50;;;24.00;99.90;;;;;;4057574;29;20216;-82
2022/07/14 11:00:56;;;;;;;7.45;2.35;;;24.20;99.90;;;;;;4061722;29;20248;-82
2022/07/14 11:03:18;;;;;;;5.10;2.22;;;24.30;99.90;;;;;;4057583;29;20225;-82
2022/07/14 11:05:20;;;;;;;5.82;2.30;;;24.40;99.90;;;;;;4054401;29;20304;-82
2022/07/14 11:07:39;;;;;;;7.40;2.42;;;24.50;99.90;;;;;;4062386;29;20229;-82
2022/07/14 11:09:41;;;;;;;5.80;2.40;;;24.60;99.90;;;;;;4061524;29;20292;-82
2022/07/14 11:12:09;;;;;;;7.03;1.92;;;24.70;99.90;;;;;;4063646;29;20728;-82
2022/07/14 11:14:13;;;;;;;6.65;2.22;;;24.80;99.90;;;;;;4059524;29;20212;-82
2022/07/14 11:16:16;;;;;;;6.25;2.45;;;24.80;99.90;;;;;;4063514;29;20213;-82
2022/07/14 11:18:33;;;;;;;7.15;2.15;;;24.80;99.90;;;;;;4058317;29;20253;-82